createdAt,value
2022-10-13T00:00:49.951Z,100.00
2022-10-13T00:03:36.245Z,100.00
2022-10-13T00:06:24.240Z,100.00
2022-10-13T00:09:09.228Z,100.00
2022-10-13T00:11:57.274Z,100.00
2022-10-13T00:14:42.629Z,100.00
2022-10-13T00:17:27.256Z,100.00
2022-10-13T00:20:12.394Z,100.00
2022-10-13T00:22:57.334Z,100.00
2022-10-13T00:25:49.256Z,100.00
2022-10-13T00:28:34.646Z,100.00
2022-10-13T00:31:29.450Z,100.00
2022-10-13T00:34:14.880Z,100.00
2022-10-13T00:36:59.457Z,100.00
2022-10-13T00:39:44.903Z,100.00
2022-10-13T00:42:30.326Z,100.00
2022-10-13T00:45:17.177Z,100.00
2022-10-13T00:48:02.101Z,100.00
2022-10-13T00:50:47.576Z,100.00
2022-10-13T00:53:37.287Z,100.00
2022-10-13T00:56:25.243Z,100.00
2022-10-13T00:59:21.918Z,100.00
2022-10-13T01:02:08.106Z,100.00
2022-10-13T01:04:53.245Z,100.00
2022-10-13T01:07:38.048Z,100.00
2022-10-13T01:11:04.668Z,100.00
2022-10-13T01:14:14.569Z,100.00
2022-10-13T01:17:22.258Z,100.00
2022-10-13T01:20:26.282Z,100.00
2022-10-13T01:23:12.164Z,100.00
2022-10-13T01:26:02.893Z,100.00
2022-10-13T01:29:10.629Z,100.00
2022-10-13T01:32:11.272Z,100.00
2022-10-13T01:35:14.743Z,100.00
2022-10-13T01:38:21.523Z,100.00
2022-10-13T01:41:19.163Z,100.00
2022-10-13T01:44:19.492Z,100.00
2022-10-13T01:47:13.005Z,100.00
2022-10-13T01:49:59.930Z,100.00
2022-10-13T01:52:46.371Z,100.00
2022-10-13T01:55:31.514Z,100.00
2022-10-13T01:58:16.754Z,100.00
2022-10-13T02:01:55.923Z,100.00
2022-10-13T02:05:03.027Z,100.00
2022-10-13T02:08:19.923Z,100.00
2022-10-13T02:11:17.599Z,100.00
2022-10-13T02:14:15.845Z,100.00
2022-10-13T02:17:03.612Z,100.00
2022-10-13T02:19:48.555Z,100.00
2022-10-13T02:22:38.583Z,100.00
2022-10-13T02:25:24.559Z,100.00
2022-10-13T02:28:10.430Z,100.00
2022-10-13T02:30:59.988Z,100.00
2022-10-13T02:33:44.802Z,100.00
2022-10-13T02:36:29.778Z,100.00
2022-10-13T02:39:15.655Z,100.00
2022-10-13T02:42:00.365Z,100.00
2022-10-13T02:44:45.459Z,100.00
2022-10-13T02:47:30.184Z,100.00
2022-10-13T02:50:15.522Z,100.00
2022-10-13T02:53:00.135Z,100.00
2022-10-13T02:55:45.119Z,100.00
2022-10-13T02:58:30.068Z,100.00
2022-10-13T03:01:15.898Z,100.00
2022-10-13T03:04:01.000Z,100.00
2022-10-13T03:06:45.947Z,100.00
2022-10-13T03:09:31.677Z,100.00
2022-10-13T03:12:16.746Z,100.00
2022-10-13T03:15:01.765Z,100.00
2022-10-13T03:17:46.797Z,100.00
2022-10-13T03:20:31.628Z,100.00
2022-10-13T03:23:16.587Z,100.00
2022-10-13T03:26:02.150Z,100.00
2022-10-13T03:28:51.213Z,100.00
2022-10-13T03:31:36.159Z,100.00
2022-10-13T03:34:21.543Z,100.00
2022-10-13T03:37:06.189Z,100.00
2022-10-13T03:39:57.293Z,100.00
2022-10-13T03:42:42.121Z,100.00
2022-10-13T03:45:27.231Z,100.00
2022-10-13T03:48:12.155Z,100.00
2022-10-13T03:50:57.541Z,100.00
2022-10-13T03:53:42.282Z,100.00
2022-10-13T03:56:27.886Z,100.00
2022-10-13T03:59:16.316Z,100.00
2022-10-13T04:02:01.042Z,100.00
2022-10-13T04:04:46.241Z,100.00
2022-10-13T04:07:31.309Z,100.00
2022-10-13T04:10:15.882Z,100.00
2022-10-13T04:13:01.159Z,100.00
2022-10-13T04:15:45.867Z,100.00
2022-10-13T04:18:31.436Z,100.00
2022-10-13T04:21:16.294Z,100.00
2022-10-13T04:24:02.067Z,100.00
2022-10-13T04:26:46.951Z,100.00
2022-10-13T04:29:31.743Z,100.00
2022-10-13T04:32:16.983Z,100.00
2022-10-13T04:35:02.603Z,100.00
2022-10-13T04:37:48.027Z,100.00
2022-10-13T04:40:34.447Z,100.00
2022-10-13T04:43:19.165Z,100.00
2022-10-13T04:46:09.456Z,100.00
2022-10-13T04:48:55.024Z,100.00
2022-10-13T04:51:43.110Z,100.00
2022-10-13T04:54:28.008Z,100.00
2022-10-13T04:57:13.074Z,100.00
2022-10-13T04:59:57.883Z,100.00
2022-10-13T05:02:43.373Z,100.00
2022-10-13T05:05:27.999Z,100.00
2022-10-13T05:08:13.383Z,100.00
2022-10-13T05:11:01.914Z,100.00
2022-10-13T05:13:47.673Z,100.00
2022-10-13T05:16:32.797Z,100.00
2022-10-13T05:19:17.573Z,100.00
2022-10-13T05:22:02.574Z,100.00
2022-10-13T05:24:47.728Z,100.00
2022-10-13T05:27:32.661Z,100.00
2022-10-13T05:30:20.768Z,100.00
2022-10-13T05:33:05.906Z,100.00
2022-10-13T05:35:50.656Z,100.00
2022-10-13T05:38:35.760Z,100.00
2022-10-13T05:41:22.569Z,100.00
2022-10-13T05:44:09.385Z,100.00
2022-10-13T05:47:03.663Z,100.00
2022-10-13T05:49:51.336Z,100.00
2022-10-13T05:52:37.243Z,100.00
2022-10-13T05:55:21.793Z,100.00
2022-10-13T05:58:06.690Z,100.00
2022-10-13T06:00:52.108Z,100.00
2022-10-13T06:03:39.354Z,100.00
2022-10-13T06:06:29.120Z,100.00
2022-10-13T06:09:16.885Z,100.00
2022-10-13T06:12:01.935Z,100.00
2022-10-13T06:14:46.984Z,100.00
2022-10-13T06:17:36.285Z,100.00
2022-10-13T06:20:21.002Z,100.00
2022-10-13T06:23:06.326Z,100.00
2022-10-13T06:25:53.827Z,100.00
2022-10-13T06:28:38.716Z,100.00
2022-10-13T06:31:23.502Z,100.00
2022-10-13T06:34:08.719Z,100.00
2022-10-13T06:36:53.579Z,100.00
2022-10-13T06:39:38.612Z,100.00
2022-10-13T06:42:23.650Z,100.00
2022-10-13T06:45:25.494Z,100.00
2022-10-13T06:48:10.630Z,100.00
2022-10-13T06:51:00.017Z,100.00
2022-10-13T06:53:44.857Z,100.00
2022-10-13T06:56:29.950Z,100.00
2022-10-13T06:59:17.499Z,100.00
2022-10-13T07:02:04.150Z,100.00
2022-10-13T07:04:48.829Z,100.00
2022-10-13T07:07:33.592Z,100.00
2022-10-13T07:10:18.743Z,100.00
2022-10-13T07:13:04.333Z,100.00
2022-10-13T07:15:49.291Z,100.00
2022-10-13T07:18:34.395Z,100.00
2022-10-13T07:21:19.276Z,100.00
2022-10-13T07:24:04.788Z,100.00
2022-10-13T07:26:50.055Z,100.00
2022-10-13T07:29:35.352Z,100.00
2022-10-13T07:32:20.289Z,100.00
2022-10-13T07:35:05.467Z,100.00
2022-10-13T07:37:52.350Z,100.00
2022-10-13T07:40:38.507Z,100.00
2022-10-13T07:43:23.320Z,100.00
2022-10-13T07:46:11.373Z,100.00
2022-10-13T07:48:56.504Z,100.00
2022-10-13T07:51:41.436Z,100.00
2022-10-13T07:54:27.501Z,100.00
2022-10-13T07:57:12.591Z,100.00
2022-10-13T07:59:57.294Z,100.00
2022-10-13T08:02:42.365Z,100.00
2022-10-13T08:05:27.273Z,100.00
2022-10-13T08:08:12.204Z,100.00
2022-10-13T08:11:16.938Z,100.00
2022-10-13T08:14:03.222Z,100.00
2022-10-13T08:16:50.044Z,100.00
2022-10-13T08:19:38.165Z,100.00
2022-10-13T08:22:27.960Z,100.00
2022-10-13T08:25:13.288Z,100.00
2022-10-13T08:28:00.600Z,100.00
2022-10-13T08:30:46.111Z,100.00
2022-10-13T08:33:30.783Z,100.00
2022-10-13T08:36:16.984Z,100.00
2022-10-13T08:39:02.703Z,100.00
2022-10-13T08:41:47.916Z,100.00
2022-10-13T08:47:40.521Z,100.00
2022-10-13T08:50:29.353Z,100.00
2022-10-13T08:53:23.159Z,100.00
2022-10-13T08:56:19.659Z,100.00
2022-10-13T08:59:04.752Z,100.00
2022-10-13T09:01:53.667Z,100.00
2022-10-13T09:04:43.352Z,100.00
2022-10-13T09:07:34.046Z,100.00
2022-10-13T09:10:18.802Z,100.00
2022-10-13T09:13:03.754Z,100.00
2022-10-13T09:15:51.948Z,100.00
2022-10-13T09:18:37.895Z,100.00
2022-10-13T09:21:29.387Z,100.00
2022-10-13T09:24:17.795Z,100.00
2022-10-13T09:27:10.732Z,100.00
2022-10-13T09:29:57.341Z,100.00
2022-10-13T09:32:42.075Z,100.00
2022-10-13T09:35:27.238Z,100.00
2022-10-13T09:38:22.470Z,100.00
2022-10-13T09:41:21.778Z,100.00
2022-10-13T09:44:14.010Z,100.00
2022-10-13T09:47:02.359Z,97.34
2022-10-13T09:50:17.135Z,87.27
2022-10-13T09:53:39.367Z,84.15
2022-10-13T09:56:39.032Z,84.22
2022-10-13T09:59:32.780Z,83.23
2022-10-13T10:02:30.217Z,84.65
2022-10-13T10:05:44.600Z,82.99
2022-10-13T10:08:38.817Z,87.30
2022-10-13T10:11:42.803Z,85.94
2022-10-13T10:14:34.114Z,75.31
2022-10-13T10:17:55.689Z,61.26
2022-10-13T10:20:58.628Z,52.92
2022-10-13T10:23:51.666Z,48.43
2022-10-13T10:26:54.637Z,44.50
2022-10-13T10:29:48.924Z,44.41
2022-10-13T10:32:49.241Z,43.77
2022-10-13T10:35:43.776Z,46.17
2022-10-13T10:38:31.600Z,48.54
2022-10-13T10:41:38.592Z,49.25
2022-10-13T10:44:34.295Z,54.76
2022-10-13T10:47:24.917Z,60.20
2022-10-13T10:50:12.969Z,60.92
2022-10-13T10:53:06.865Z,63.26
2022-10-13T10:55:57.807Z,68.21
2022-10-13T10:59:05.095Z,71.31
2022-10-13T11:02:28.466Z,71.07
2022-10-13T11:05:14.396Z,73.60
2022-10-13T11:07:59.477Z,72.88
2022-10-13T11:10:44.595Z,68.64
2022-10-13T11:13:29.592Z,65.97
2022-10-13T11:16:34.333Z,63.66
2022-10-13T11:19:39.499Z,59.64
2022-10-13T11:22:29.114Z,57.73
2022-10-13T11:25:40.185Z,56.70
2022-10-13T11:28:27.902Z,53.37
2022-10-13T11:31:12.533Z,53.12
2022-10-13T11:34:01.682Z,50.74
2022-10-13T11:36:54.544Z,50.78
2022-10-13T11:39:50.134Z,51.37
2022-10-13T11:42:56.898Z,57.21
2022-10-13T11:45:56.280Z,53.62
2022-10-13T11:49:02.717Z,53.27
2022-10-13T11:52:25.786Z,54.39
2022-10-13T11:55:17.803Z,57.36
2022-10-13T11:58:32.594Z,59.18
2022-10-13T12:01:19.050Z,57.43
2022-10-13T12:04:13.793Z,55.05
2022-10-13T12:07:05.586Z,53.32
2022-10-13T12:09:56.427Z,54.38
2022-10-13T12:12:49.158Z,55.00
2022-10-13T12:15:39.602Z,57.95
2022-10-13T12:18:29.307Z,55.31
2022-10-13T12:21:19.550Z,55.44
2022-10-13T12:24:09.702Z,57.03
2022-10-13T12:26:56.463Z,54.18
2022-10-13T12:29:41.395Z,53.23
2022-10-13T12:32:33.670Z,55.53
2022-10-13T12:35:28.198Z,53.18
2022-10-13T12:38:20.891Z,53.96
2022-10-13T12:41:06.038Z,54.41
2022-10-13T12:43:52.192Z,54.43
2022-10-13T12:46:38.321Z,52.55
2022-10-13T12:49:28.902Z,55.60
2022-10-13T12:52:24.108Z,53.84
2022-10-13T12:55:16.683Z,53.80
2022-10-13T12:58:02.441Z,53.66
2022-10-13T13:01:07.270Z,51.67
2022-10-13T13:03:58.764Z,54.43
2022-10-13T13:06:56.979Z,53.01
2022-10-13T13:09:41.822Z,52.73
2022-10-13T13:12:28.463Z,53.97
2022-10-13T13:15:21.270Z,53.07
2022-10-13T13:18:45.151Z,51.48
2022-10-13T13:21:30.342Z,53.20
2022-10-13T13:24:21.999Z,52.98
2022-10-13T13:27:18.719Z,52.43
2022-10-13T13:30:09.055Z,53.24
2022-10-13T13:32:53.829Z,53.41
2022-10-13T13:35:38.851Z,54.51
2022-10-13T13:38:23.955Z,56.06
2022-10-13T13:41:12.716Z,55.85
2022-10-13T13:43:57.915Z,56.56
2022-10-13T13:46:42.971Z,59.98
2022-10-13T13:49:27.568Z,67.94
2022-10-13T13:52:12.840Z,68.55
2022-10-13T13:54:57.457Z,70.46
2022-10-13T13:57:43.326Z,74.52
2022-10-13T14:00:27.883Z,69.75
2022-10-13T14:03:17.100Z,66.09
2022-10-13T14:06:04.330Z,64.89
2022-10-13T14:08:50.454Z,63.98
2022-10-13T14:11:35.450Z,62.74
2022-10-13T14:14:20.423Z,57.68
2022-10-13T14:17:06.048Z,59.18
2022-10-13T14:19:50.948Z,61.49
2022-10-13T14:22:38.149Z,65.20
2022-10-13T14:25:22.848Z,65.70
2022-10-13T14:28:07.796Z,73.33
2022-10-13T14:30:52.704Z,70.94
2022-10-13T14:33:37.780Z,82.34
2022-10-13T14:36:23.173Z,82.62
2022-10-13T14:39:08.363Z,82.32
2022-10-13T14:41:53.044Z,80.59
2022-10-13T14:44:37.798Z,81.16
2022-10-13T14:47:23.121Z,81.31
2022-10-13T14:50:08.489Z,81.49
2022-10-13T14:52:53.425Z,83.07
2022-10-13T14:55:38.629Z,90.68
2022-10-13T14:58:23.423Z,99.22
2022-10-13T15:01:08.594Z,100.00
2022-10-13T15:03:53.990Z,100.00
2022-10-13T15:06:39.788Z,100.00
2022-10-13T15:09:33.448Z,100.00
2022-10-13T15:12:31.447Z,100.00
2022-10-13T15:15:16.320Z,100.00
2022-10-13T15:18:01.352Z,100.00
2022-10-13T15:20:47.411Z,100.00
2022-10-13T15:23:32.539Z,100.00
2022-10-13T15:26:18.936Z,100.00
2022-10-13T15:29:04.617Z,100.00
2022-10-13T15:31:49.711Z,100.00
2022-10-13T15:34:34.963Z,100.00
2022-10-13T15:37:20.040Z,100.00
2022-10-13T15:40:06.128Z,100.00
2022-10-13T15:42:52.557Z,100.00
2022-10-13T15:45:37.830Z,100.00
2022-10-13T15:48:23.512Z,100.00
2022-10-13T15:51:14.896Z,100.00
2022-10-13T15:53:59.570Z,100.00
2022-10-13T15:56:44.600Z,100.00
2022-10-13T15:59:30.951Z,100.00
2022-10-13T16:02:16.073Z,100.00
2022-10-13T16:05:04.365Z,100.00
2022-10-13T16:07:49.759Z,100.00
2022-10-13T16:10:34.478Z,100.00
2022-10-13T16:13:19.731Z,100.00
2022-10-13T16:16:04.697Z,100.00
2022-10-13T16:18:50.687Z,100.00
2022-10-13T16:21:36.208Z,100.00
2022-10-13T16:24:22.686Z,100.00
2022-10-13T16:27:08.325Z,100.00
2022-10-13T16:29:52.957Z,100.00
2022-10-13T16:32:41.434Z,100.00
2022-10-13T16:35:26.147Z,100.00
2022-10-13T16:38:11.068Z,100.00
2022-10-13T16:40:56.009Z,100.00
2022-10-13T16:43:42.374Z,100.00
2022-10-13T16:46:27.159Z,100.00
2022-10-13T16:49:12.345Z,100.00
2022-10-13T16:51:57.143Z,100.00
2022-10-13T16:54:42.190Z,100.00
2022-10-13T16:57:29.202Z,100.00
2022-10-13T17:00:14.317Z,100.00
2022-10-13T17:02:58.817Z,100.00
2022-10-13T17:05:43.866Z,100.00
2022-10-13T17:08:29.116Z,100.00
2022-10-13T17:11:21.820Z,100.00
2022-10-13T17:14:06.673Z,100.00
2022-10-13T17:16:55.362Z,100.00
2022-10-13T17:19:43.411Z,100.00
2022-10-13T17:22:28.381Z,100.00
2022-10-13T17:25:13.365Z,100.00
2022-10-13T17:27:58.226Z,100.00
2022-10-13T17:30:43.598Z,100.00
2022-10-13T17:33:30.898Z,100.00
2022-10-13T17:36:19.103Z,100.00
2022-10-13T17:39:06.755Z,100.00
2022-10-13T17:41:54.557Z,100.00
2022-10-13T17:44:39.752Z,100.00
2022-10-13T17:47:26.092Z,100.00
2022-10-13T17:50:11.224Z,100.00
2022-10-13T17:52:56.161Z,100.00
2022-10-13T17:55:40.969Z,100.00
2022-10-13T17:58:26.329Z,100.00
2022-10-13T18:01:20.910Z,100.00
2022-10-13T18:04:12.782Z,100.00
2022-10-13T18:06:57.339Z,100.00
2022-10-13T18:09:42.903Z,100.00
2022-10-13T18:12:27.971Z,100.00
2022-10-13T18:15:12.894Z,100.00
2022-10-13T18:17:57.672Z,100.00
2022-10-13T18:20:43.672Z,100.00
2022-10-13T18:23:33.766Z,100.00
2022-10-13T18:26:19.536Z,100.00
2022-10-13T18:29:06.261Z,100.00
2022-10-13T18:31:54.132Z,100.00
2022-10-13T18:34:39.046Z,100.00
2022-10-13T18:37:24.079Z,100.00
2022-10-13T18:40:09.596Z,100.00
2022-10-13T18:42:55.033Z,100.00
2022-10-13T18:45:40.050Z,100.00
2022-10-13T18:48:25.063Z,100.00
2022-10-13T18:51:16.496Z,100.00
2022-10-13T18:54:01.133Z,100.00
2022-10-13T18:56:46.128Z,100.00
2022-10-13T18:59:31.155Z,100.00
2022-10-13T19:02:16.370Z,100.00
2022-10-13T19:05:01.315Z,100.00
2022-10-13T19:07:46.356Z,100.00
2022-10-13T19:10:31.250Z,100.00
2022-10-13T19:13:16.343Z,100.00
2022-10-13T19:16:02.302Z,100.00
2022-10-13T19:18:47.974Z,100.00
2022-10-13T19:21:33.437Z,100.00
2022-10-13T19:24:18.128Z,100.00
2022-10-13T19:27:03.373Z,100.00
2022-10-13T19:29:51.583Z,100.00
2022-10-13T19:32:39.014Z,100.00
2022-10-13T19:35:23.960Z,100.00
2022-10-13T19:38:10.396Z,100.00
2022-10-13T19:41:01.553Z,100.00
2022-10-13T19:43:46.413Z,100.00
2022-10-13T19:46:33.937Z,100.00
2022-10-13T19:49:20.809Z,100.00
2022-10-13T19:52:05.569Z,100.00
2022-10-13T19:54:51.044Z,100.00
2022-10-13T19:57:36.036Z,100.00
2022-10-13T20:00:21.099Z,100.00
2022-10-13T20:03:05.901Z,100.00
2022-10-13T20:05:52.425Z,100.00
2022-10-13T20:08:37.290Z,100.00
2022-10-13T20:11:24.013Z,100.00
2022-10-13T20:14:09.617Z,100.00
2022-10-13T20:16:56.306Z,100.00
2022-10-13T20:19:40.949Z,100.00
2022-10-13T20:22:25.916Z,100.00
2022-10-13T20:25:14.155Z,100.00
2022-10-13T20:27:58.918Z,100.00
2022-10-13T20:30:43.934Z,100.00
2022-10-13T20:33:30.144Z,100.00
2022-10-13T20:36:16.805Z,100.00
2022-10-13T20:39:02.454Z,100.00
2022-10-13T20:41:47.952Z,100.00
2022-10-13T20:44:32.836Z,100.00
2022-10-13T20:47:17.772Z,100.00
2022-10-13T20:50:04.261Z,100.00
2022-10-13T20:52:49.098Z,100.00
2022-10-13T20:55:38.077Z,100.00
2022-10-13T20:58:27.805Z,100.00
2022-10-13T21:01:14.313Z,100.00
2022-10-13T21:03:59.097Z,100.00
2022-10-13T21:06:44.049Z,100.00
2022-10-13T21:09:28.805Z,100.00
2022-10-13T21:12:13.881Z,100.00
2022-10-13T21:14:58.746Z,100.00
2022-10-13T21:17:43.673Z,100.00
2022-10-13T21:20:28.669Z,100.00
2022-10-13T21:23:13.887Z,100.00
2022-10-13T21:26:03.443Z,100.00
2022-10-13T21:28:49.251Z,100.00
2022-10-13T21:31:34.838Z,100.00
2022-10-13T21:34:19.722Z,100.00
2022-10-13T21:37:04.666Z,100.00
2022-10-13T21:39:49.764Z,100.00
2022-10-13T21:42:35.340Z,100.00
2022-10-13T21:45:20.203Z,100.00
2022-10-13T21:48:05.831Z,100.00
2022-10-13T21:50:51.046Z,100.00
2022-10-13T21:53:35.884Z,100.00
2022-10-13T21:56:22.082Z,100.00
2022-10-13T21:59:08.252Z,100.00
2022-10-13T22:01:53.183Z,100.00
2022-10-13T22:04:37.991Z,100.00
2022-10-13T22:07:23.043Z,100.00
2022-10-13T22:10:08.573Z,100.00
2022-10-13T22:12:53.322Z,100.00
2022-10-13T22:15:38.500Z,100.00
2022-10-13T22:18:23.523Z,100.00
2022-10-13T22:21:12.275Z,100.00
2022-10-13T22:24:00.098Z,100.00
2022-10-13T22:26:47.063Z,100.00
2022-10-13T22:29:31.733Z,100.00
2022-10-13T22:32:16.573Z,100.00
2022-10-13T22:35:01.771Z,100.00
2022-10-13T22:37:46.477Z,100.00
2022-10-13T22:40:31.632Z,100.00
2022-10-13T22:43:16.493Z,100.00
2022-10-13T22:46:01.472Z,100.00
2022-10-13T22:48:46.771Z,100.00
2022-10-13T22:51:33.276Z,100.00
2022-10-13T22:54:17.963Z,100.00
2022-10-13T22:57:03.184Z,100.00
2022-10-13T22:59:47.758Z,100.00
2022-10-13T23:02:32.520Z,100.00
2022-10-13T23:05:17.654Z,100.00
2022-10-13T23:08:02.657Z,100.00
2022-10-13T23:10:48.087Z,100.00
2022-10-13T23:13:33.096Z,100.00
2022-10-13T23:16:20.595Z,100.00
2022-10-13T23:19:05.464Z,100.00
2022-10-13T23:21:50.409Z,100.00
2022-10-13T23:24:35.480Z,100.00
2022-10-13T23:27:20.666Z,100.00
2022-10-13T23:30:07.810Z,100.00
2022-10-13T23:32:52.887Z,100.00
2022-10-13T23:35:37.740Z,100.00
2022-10-13T23:38:23.773Z,100.00
2022-10-13T23:41:11.350Z,100.00
2022-10-13T23:43:56.265Z,100.00
2022-10-13T23:46:41.526Z,100.00
2022-10-13T23:49:28.549Z,100.00
2022-10-13T23:52:13.361Z,100.00
2022-10-13T23:54:58.554Z,100.00
2022-10-13T23:57:46.443Z,100.00
